createdAt,value
2016-02-17T00:00:12.699Z,-2.25
2016-02-17T00:01:12.686Z,-2.25
2016-02-17T00:02:12.626Z,-2.25
2016-02-17T00:03:12.597Z,-2.26
2016-02-17T00:04:12.552Z,-2.26
2016-02-17T00:05:12.525Z,-2.32
2016-02-17T00:06:12.497Z,-2.3
2016-02-17T00:07:12.468Z,-2.23
2016-02-17T00:08:12.439Z,-2.32
2016-02-17T00:09:12.395Z,-2.28
2016-02-17T00:10:12.351Z,-2.3
2016-02-17T00:11:12.306Z,-2.44
2016-02-17T00:12:12.294Z,-2.42
2016-02-17T00:13:12.249Z,-2.26
2016-02-17T00:14:12.205Z,-2.37
2016-02-17T00:15:12.177Z,-2.35
2016-02-17T00:16:12.164Z,-2.37
2016-02-17T00:17:12.104Z,-2.37
2016-02-17T00:18:12.075Z,-2.35
2016-02-17T00:19:12.031Z,-2.38
2016-02-17T00:20:12.018Z,-2.38
2016-02-17T00:21:11.973Z,-2.32
2016-02-17T00:22:11.930Z,-2.37
2016-02-17T00:23:11.901Z,-2.34
2016-02-17T00:24:11.856Z,-2.35
2016-02-17T00:25:11.828Z,-2.4
2016-02-17T00:26:11.784Z,-2.35
2016-02-17T00:27:11.756Z,-2.3
2016-02-17T00:28:11.712Z,-2.32
2016-02-17T00:29:11.699Z,-2.32
2016-02-17T00:30:11.644Z,-2.42
2016-02-17T00:31:11.630Z,-2.38
2016-02-17T00:32:11.571Z,-2.35
2016-02-17T00:33:11.543Z,-2.38
2016-02-17T00:34:11.514Z,-2.35
2016-02-17T00:35:11.469Z,-2.35
2016-02-17T00:36:11.441Z,-2.4
2016-02-17T00:37:11.413Z,-2.34
2016-02-17T00:38:11.368Z,-2.35
2016-02-17T00:39:11.324Z,-2.37
2016-02-17T00:40:11.295Z,-2.35
2016-02-17T00:41:11.268Z,-2.37
2016-02-17T00:42:11.238Z,-2.35
2016-02-17T00:43:11.195Z,-2.37
2016-02-17T00:44:11.165Z,-2.35
2016-02-17T00:45:11.121Z,-2.35
2016-02-17T00:46:11.093Z,-2.34
2016-02-17T00:47:11.049Z,-2.37
2016-02-17T00:48:11.020Z,-2.35
2016-02-17T00:49:10.976Z,-2.38
2016-02-17T00:50:10.948Z,-2.38
2016-02-17T00:51:10.903Z,-2.38
2016-02-17T00:52:10.875Z,-2.38
2016-02-17T00:53:10.846Z,-2.41
2016-02-17T00:54:10.818Z,-2.41
2016-02-17T00:55:10.758Z,-2.42
2016-02-17T00:56:10.730Z,-2.38
2016-02-17T00:57:10.700Z,-2.42
2016-02-17T00:58:10.672Z,-2.45
2016-02-17T00:59:10.628Z,-2.42
2016-02-17T01:00:10.599Z,-2.34
2016-02-17T01:01:10.586Z,-2.4
2016-02-17T01:02:10.527Z,-2.48
2016-02-17T01:03:10.483Z,-2.4
2016-02-17T01:04:10.454Z,-2.4
2016-02-17T01:05:10.410Z,-2.4
2016-02-17T01:06:10.381Z,-2.5
2016-02-17T01:07:10.353Z,-2.47
2016-02-17T01:08:10.308Z,-2.52
2016-02-17T01:09:10.280Z,-2.53
2016-02-17T01:10:10.251Z,-2.47
2016-02-17T01:11:10.207Z,-2.47
2016-02-17T01:12:10.179Z,-2.5
2016-02-17T01:13:10.134Z,-2.48
2016-02-17T01:14:10.106Z,-2.5
2016-02-17T01:15:10.062Z,-2.5
2016-02-17T01:16:10.048Z,-2.53
2016-02-17T01:17:09.989Z,-2.52
2016-02-17T01:18:09.960Z,-2.6
2016-02-17T01:19:09.932Z,-2.56
2016-02-17T01:20:09.887Z,-2.55
2016-02-17T01:21:09.859Z,-2.48
2016-02-17T01:22:09.814Z,-2.56
2016-02-17T01:23:09.787Z,-2.59
2016-02-17T01:24:09.758Z,-2.53
2016-02-17T01:25:09.714Z,-2.52
2016-02-17T01:26:09.670Z,-2.5
2016-02-17T01:27:09.641Z,-2.56
2016-02-17T01:28:09.612Z,-2.58
2016-02-17T01:29:09.569Z,-2.55
2016-02-17T01:30:09.539Z,-2.6
2016-02-17T01:31:09.511Z,-2.69
2016-02-17T01:32:09.483Z,-2.66
2016-02-17T01:33:09.438Z,-2.63
2016-02-17T01:34:09.394Z,-2.69
2016-02-17T01:35:09.365Z,-2.59
2016-02-17T01:36:09.338Z,-2.62
2016-02-17T01:37:09.293Z,-2.65
2016-02-17T01:38:09.249Z,-2.65
2016-02-17T01:39:09.220Z,-2.63
2016-02-17T01:40:09.176Z,-2.59
2016-02-17T01:41:09.163Z,-2.65
2016-02-17T01:42:09.103Z,-2.74
2016-02-17T01:43:09.074Z,-2.63
2016-02-17T01:44:09.046Z,-2.6
2016-02-17T01:45:09.002Z,-2.73
2016-02-17T01:46:08.989Z,-2.59
2016-02-17T01:47:08.960Z,-2.65
2016-02-17T01:48:08.901Z,-2.6
2016-02-17T01:49:08.856Z,-2.76
2016-02-17T01:50:08.828Z,-2.73
2016-02-17T01:51:08.783Z,-2.73
2016-02-17T01:52:08.755Z,-2.8
2016-02-17T01:53:08.726Z,-2.74
2016-02-17T01:54:08.682Z,-2.78
2016-02-17T01:55:08.653Z,-2.78
2016-02-17T01:56:08.625Z,-2.77
2016-02-17T01:57:08.581Z,-2.78
2016-02-17T01:58:08.553Z,-2.81
2016-02-17T01:59:08.539Z,-2.8
2016-02-17T02:00:08.480Z,-2.83
2016-02-17T02:01:08.436Z,-2.76
2016-02-17T02:02:08.407Z,-2.86
2016-02-17T02:03:08.363Z,-2.8
2016-02-17T02:04:08.333Z,-2.8
2016-02-17T02:05:08.305Z,-2.81
2016-02-17T02:06:08.261Z,-2.84
2016-02-17T02:07:08.232Z,-2.86
2016-02-17T02:08:08.205Z,-2.88
2016-02-17T02:09:08.160Z,-2.89
2016-02-17T02:10:08.116Z,-2.89
2016-02-17T02:11:08.088Z,-2.89
2016-02-17T02:12:08.043Z,-2.92
2016-02-17T02:13:08.015Z,-2.88
2016-02-17T02:14:08.033Z,-2.92
2016-02-17T02:15:07.942Z,-2.89
2016-02-17T02:16:07.913Z,-2.92
2016-02-17T02:17:07.869Z,-2.86
2016-02-17T02:18:07.841Z,-2.86
2016-02-17T02:19:07.796Z,-2.88
2016-02-17T02:20:07.767Z,-2.88
2016-02-17T02:21:07.723Z,-2.94
2016-02-17T02:22:07.695Z,-2.92
2016-02-17T02:23:07.651Z,-2.95
2016-02-17T02:24:07.622Z,-3.04
2016-02-17T02:25:07.579Z,-2.95
2016-02-17T02:26:07.551Z,-2.98
2016-02-17T02:27:07.507Z,-2.98
2016-02-17T02:28:07.478Z,-2.92
2016-02-17T02:29:07.449Z,-2.97
2016-02-17T02:30:07.405Z,-2.92
2016-02-17T02:31:07.376Z,-3.02
2016-02-17T02:32:07.348Z,-2.99
2016-02-17T02:33:07.303Z,-2.95
2016-02-17T02:34:07.276Z,-2.99
2016-02-17T02:35:07.247Z,-2.92
2016-02-17T02:36:07.187Z,-3.07
2016-02-17T02:37:07.158Z,-2.89
2016-02-17T02:38:07.114Z,-3.04
2016-02-17T02:39:07.086Z,-3.02
2016-02-17T02:40:07.056Z,-3.07
2016-02-17T02:41:07.013Z,-3.02
2016-02-17T02:42:06.984Z,-2.97
2016-02-17T02:43:06.956Z,-2.99
2016-02-17T02:44:06.911Z,-3.07
2016-02-17T02:45:06.883Z,-3.1
2016-02-17T02:46:06.839Z,-3.06
2016-02-17T02:47:06.811Z,-2.99
2016-02-17T02:48:06.782Z,-3.06
2016-02-17T02:49:06.738Z,-2.94
2016-02-17T02:50:06.693Z,-3.02
2016-02-17T02:51:06.665Z,-3.06
2016-02-17T02:52:06.636Z,-2.98
2016-02-17T02:53:06.591Z,-3.1
2016-02-17T02:54:06.563Z,-3.09
2016-02-17T02:55:06.519Z,-2.95
2016-02-17T02:56:06.475Z,-3.07
2016-02-17T02:57:06.463Z,-3.1
2016-02-17T02:58:06.402Z,-3.15
2016-02-17T02:59:06.374Z,-3.19
2016-02-17T03:00:06.345Z,-3.19
2016-02-17T03:01:06.317Z,-3.16
2016-02-17T03:02:06.256Z,-3.16
2016-02-17T03:03:06.244Z,-3.16
2016-02-17T03:04:06.200Z,-3.12
2016-02-17T03:05:06.156Z,-3.17
2016-02-17T03:06:06.126Z,-3.15
2016-02-17T03:07:06.083Z,-3.16
2016-02-17T03:08:06.054Z,-3.13
2016-02-17T03:09:06.009Z,-3.2
2016-02-17T03:10:05.981Z,-3.17
2016-02-17T03:11:05.953Z,-3.13
2016-02-17T03:12:05.909Z,-3.16
2016-02-17T03:13:05.880Z,-3.1
2016-02-17T03:14:05.836Z,-3.1
2016-02-17T03:15:05.807Z,-3.16
2016-02-17T03:16:05.764Z,-3.15
2016-02-17T03:17:05.735Z,-3.17
2016-02-17T03:18:05.691Z,-3.16
2016-02-17T03:19:05.661Z,-3.06
2016-02-17T03:20:05.618Z,-3.1
2016-02-17T03:21:05.605Z,-3.1
2016-02-17T03:22:05.544Z,-3.13
2016-02-17T03:23:05.516Z,-3.17
2016-02-17T03:24:05.488Z,-3.17
2016-02-17T03:25:05.460Z,-3.15
2016-02-17T03:26:05.415Z,-3.15
2016-02-17T03:27:05.387Z,-3.19
2016-02-17T03:28:05.343Z,-3.16
2016-02-17T03:29:05.298Z,-3.2
2016-02-17T03:30:05.316Z,-3.13
2016-02-17T03:31:05.240Z,-3.16
2016-02-17T03:32:05.197Z,-3.06
2016-02-17T03:33:05.168Z,-3.16
2016-02-17T03:34:05.140Z,-3.13
2016-02-17T03:35:05.096Z,-3.07
2016-02-17T03:36:05.051Z,-3.19
2016-02-17T03:37:05.023Z,-3.13
2016-02-17T03:38:04.978Z,-3.16
2016-02-17T03:39:04.950Z,-3.12
2016-02-17T03:40:04.906Z,-3.16
2016-02-17T03:41:04.878Z,-3.16
2016-02-17T03:42:04.848Z,-3.16
2016-02-17T03:43:04.805Z,-3.15
2016-02-17T03:44:04.775Z,-3.17
2016-02-17T03:45:04.731Z,-3.09
2016-02-17T03:46:04.688Z,-3.16
2016-02-17T03:47:04.675Z,-3.16
2016-02-17T03:48:04.630Z,-3.19
2016-02-17T03:49:04.586Z,-3.19
2016-02-17T03:50:04.558Z,-3.2
2016-02-17T03:51:04.513Z,-3.16
2016-02-17T03:52:04.485Z,-3.1
2016-02-17T03:53:04.441Z,-3.16
2016-02-17T03:54:04.413Z,-3.12
2016-02-17T03:55:04.368Z,-3.1
2016-02-17T03:56:04.340Z,-3.12
2016-02-17T03:57:04.296Z,-3.12
2016-02-17T03:58:04.282Z,-3.15
2016-02-17T03:59:04.223Z,-3.17
2016-02-17T04:00:04.193Z,-3.17
2016-02-17T04:01:04.150Z,-3.16
2016-02-17T04:02:04.137Z,-3.15
2016-02-17T04:03:04.093Z,-3.13
2016-02-17T04:04:04.065Z,-3.16
2016-02-17T04:05:04.020Z,-3.13
2016-02-17T04:06:04.007Z,-3.25
2016-02-17T04:07:03.947Z,-3.3
2016-02-17T04:08:03.918Z,-3.23
2016-02-17T04:09:03.875Z,-3.31
2016-02-17T04:10:03.831Z,-3.23
2016-02-17T04:11:03.801Z,-3.2
2016-02-17T04:12:03.773Z,-3.28
2016-02-17T04:13:03.728Z,-3.25
2016-02-17T04:14:03.700Z,-3.28
2016-02-17T04:15:03.656Z,-3.2
2016-02-17T04:16:03.628Z,-3.27
2016-02-17T04:17:03.583Z,-3.25
2016-02-17T04:18:03.555Z,-3.19
2016-02-17T04:19:03.511Z,-3.19
2016-02-17T04:20:03.482Z,-3.27
2016-02-17T04:21:03.438Z,-3.16
2016-02-17T04:22:03.410Z,-3.19
2016-02-17T04:23:03.366Z,-3.12
2016-02-17T04:24:03.336Z,-3.16
2016-02-17T04:25:03.293Z,-3.16
2016-02-17T04:26:03.280Z,-3.15
2016-02-17T04:27:03.219Z,-3.12
2016-02-17T04:28:03.191Z,-3.15
2016-02-17T04:29:03.162Z,-3.17
2016-02-17T04:30:03.134Z,-3.17
2016-02-17T04:31:03.090Z,-3.25
2016-02-17T04:32:03.046Z,-3.2
2016-02-17T04:33:03.002Z,-3.15
2016-02-17T04:34:02.973Z,-3.17
2016-02-17T04:35:02.945Z,-3.13
2016-02-17T04:36:02.900Z,-3.16
2016-02-17T04:37:02.715Z,-3.17
2016-02-17T04:38:02.828Z,-3.07
2016-02-17T04:39:02.799Z,-3.15
2016-02-17T04:40:02.754Z,-3.17
2016-02-17T04:41:02.726Z,-3.13
2016-02-17T04:42:02.681Z,-3.13
2016-02-17T04:43:02.653Z,-3.16
2016-02-17T04:44:02.609Z,-3.1
2016-02-17T04:45:02.596Z,-3.02
2016-02-17T04:46:02.537Z,-3.1
2016-02-17T04:47:02.523Z,-3.09
2016-02-17T04:48:02.464Z,-2.99
2016-02-17T04:49:02.436Z,-2.99
2016-02-17T04:50:02.391Z,-3.02
2016-02-17T04:51:02.378Z,-3.07
2016-02-17T04:52:02.334Z,-3.09
2016-02-17T04:53:02.321Z,-2.91
2016-02-17T04:54:02.261Z,-2.92
2016-02-17T04:55:02.233Z,-2.95
2016-02-17T04:56:02.188Z,-2.95
2016-02-17T04:57:02.160Z,-2.97
2016-02-17T04:58:02.115Z,-2.94
2016-02-17T04:59:02.087Z,-2.98
2016-02-17T05:00:02.043Z,-2.95
2016-02-17T05:01:02.015Z,-2.94
2016-02-17T05:02:01.971Z,-2.94
2016-02-17T05:03:01.941Z,-2.97
2016-02-17T05:04:01.757Z,-2.95
2016-02-17T05:05:01.884Z,-2.95
2016-02-17T05:06:01.824Z,-2.91
2016-02-17T05:07:01.796Z,-2.86
2016-02-17T05:08:01.752Z,-2.89
2016-02-17T05:09:01.740Z,-2.92
2016-02-17T05:10:01.679Z,-2.86
2016-02-17T05:11:01.651Z,-2.88
2016-02-17T05:12:01.606Z,-2.89
2016-02-17T05:13:01.593Z,-2.92
2016-02-17T05:14:01.533Z,-2.86
2016-02-17T05:15:01.521Z,-2.86
2016-02-17T05:16:01.476Z,-2.88
2016-02-17T05:17:01.448Z,-2.83
2016-02-17T05:18:01.404Z,-2.78
2016-02-17T05:19:01.375Z,-2.81
2016-02-17T05:20:01.316Z,-2.86
2016-02-17T05:21:01.286Z,-2.74
2016-02-17T05:22:01.258Z,-2.78
2016-02-17T05:23:01.230Z,-2.83
2016-02-17T05:24:01.186Z,-2.83
2016-02-17T05:25:01.158Z,-2.77
2016-02-17T05:26:01.113Z,-2.81
2016-02-17T05:27:01.085Z,-2.83
2016-02-17T05:28:01.040Z,-2.81
2016-02-17T05:29:01.011Z,-2.81
2016-02-17T05:30:00.983Z,-2.83
2016-02-17T05:31:00.955Z,-2.83
2016-02-17T05:32:00.910Z,-2.76
2016-02-17T05:33:00.882Z,-2.81
2016-02-17T05:34:00.837Z,-2.8
2016-02-17T05:35:00.793Z,-2.83
2016-02-17T05:36:00.765Z,-2.81
2016-02-17T05:37:00.721Z,-2.78
2016-02-17T05:38:00.693Z,-2.81
2016-02-17T05:39:00.648Z,-2.81
2016-02-17T05:40:00.620Z,-2.8
2016-02-17T05:41:00.575Z,-2.81
2016-02-17T05:42:00.546Z,-2.81
2016-02-17T05:43:00.502Z,-2.81
2016-02-17T05:44:00.474Z,-2.86
2016-02-17T05:45:00.445Z,-2.8
2016-02-17T05:46:00.417Z,-2.92
2016-02-17T05:47:00.373Z,-2.95
2016-02-17T05:48:00.344Z,-2.91
2016-02-17T05:48:59.581Z,-2.88
2016-02-17T05:50:00.255Z,-2.86
2016-02-17T05:51:00.227Z,-2.88
2016-02-17T05:52:00.183Z,-2.94
2016-02-17T05:53:00.155Z,-2.99
2016-02-17T05:54:00.111Z,-2.95
2016-02-17T05:55:00.081Z,-2.97
2016-02-17T05:56:00.131Z,-2.94
2016-02-17T05:57:00.008Z,-2.98
2016-02-17T05:57:59.980Z,-2.92
2016-02-17T05:58:59.951Z,-3.01
2016-02-17T05:59:59.908Z,-2.97
2016-02-17T06:00:59.880Z,-3.02
2016-02-17T06:01:59.835Z,-2.95
2016-02-17T06:02:59.806Z,-2.98
2016-02-17T06:03:59.762Z,-3.07
2016-02-17T06:04:59.733Z,-3.04
2016-02-17T06:05:59.689Z,-3.02
2016-02-17T06:06:59.646Z,-2.94
2016-02-17T06:07:59.616Z,-3.06
2016-02-17T06:08:59.588Z,-2.95
2016-02-17T06:09:59.543Z,-2.99
2016-02-17T06:10:59.515Z,-3.01
2016-02-17T06:11:59.487Z,-2.95
2016-02-17T06:12:59.458Z,-2.97
2016-02-17T06:13:59.415Z,-2.92
2016-02-17T06:14:59.370Z,-3.02
2016-02-17T06:15:59.341Z,-2.94
2016-02-17T06:16:59.297Z,-2.95
2016-02-17T06:17:59.253Z,-2.92
2016-02-17T06:18:59.225Z,-2.92
2016-02-17T06:19:59.196Z,-2.89
2016-02-17T06:20:59.167Z,-2.91
2016-02-17T06:21:59.122Z,-2.89
2016-02-17T06:22:59.095Z,-2.89
2016-02-17T06:23:59.051Z,-2.89
2016-02-17T06:24:59.006Z,-2.78
2016-02-17T06:25:58.978Z,-2.86
2016-02-17T06:26:58.949Z,-2.74
2016-02-17T06:27:58.905Z,-2.83
2016-02-17T06:28:58.876Z,-2.78
2016-02-17T06:29:58.832Z,-2.74
2016-02-17T06:30:58.803Z,-2.73
2016-02-17T06:31:58.760Z,-2.6
2016-02-17T06:32:58.731Z,-2.55
2016-02-17T06:33:58.733Z,-2.66
2016-02-17T06:34:58.658Z,-2.62
2016-02-17T06:35:58.629Z,-2.53
2016-02-17T06:36:58.585Z,-2.5
2016-02-17T06:37:58.556Z,-2.47
2016-02-17T06:38:58.529Z,-2.52
2016-02-17T06:39:58.485Z,-2.47
2016-02-17T06:40:58.455Z,-2.55
2016-02-17T06:41:58.412Z,-2.44
2016-02-17T06:42:58.398Z,-2.52
2016-02-17T06:43:58.354Z,-2.38
2016-02-17T06:44:58.309Z,-2.4
2016-02-17T06:45:58.281Z,-2.34
2016-02-17T06:46:58.238Z,-2.41
2016-02-17T06:47:58.209Z,-2.28
2016-02-17T06:48:58.165Z,-2.32
2016-02-17T06:49:58.151Z,-2.34
2016-02-17T06:50:58.092Z,-2.16
2016-02-17T06:51:58.079Z,-2.19
2016-02-17T06:52:58.034Z,-2.16
2016-02-17T06:53:57.989Z,-2.16
2016-02-17T06:54:57.962Z,-2.13
2016-02-17T06:55:57.934Z,-2.12
2016-02-17T06:56:57.905Z,-2.05
2016-02-17T06:57:57.860Z,-2.07
2016-02-17T06:58:57.816Z,-2.05
2016-02-17T06:59:57.788Z,-1.98
2016-02-17T07:00:57.758Z,-2.05
2016-02-17T07:01:57.716Z,-2.07
2016-02-17T07:02:57.687Z,-2
2016-02-17T07:03:57.657Z,-1.95
2016-02-17T07:04:57.613Z,-1.86
2016-02-17T07:05:57.585Z,-1.87
2016-02-17T07:06:57.557Z,-1.92
2016-02-17T07:07:57.513Z,-1.86
2016-02-17T07:08:57.466Z,-1.89
2016-02-17T07:09:57.453Z,-1.79
2016-02-17T07:10:57.252Z,-1.86
2016-02-17T07:11:57.365Z,-1.89
2016-02-17T07:12:57.352Z,-1.87
2016-02-17T07:13:57.307Z,-1.92
2016-02-17T07:14:57.263Z,-1.87
2016-02-17T07:15:57.250Z,-1.94
2016-02-17T07:16:57.191Z,-1.9
2016-02-17T07:17:57.162Z,-1.95
2016-02-17T07:18:57.133Z,-1.95
2016-02-17T07:19:57.089Z,-1.9
2016-02-17T07:20:57.060Z,-1.9
2016-02-17T07:21:57.031Z,-1.89
2016-02-17T07:22:57.145Z,-1.97
2016-02-17T07:23:56.958Z,-1.95
2016-02-17T07:24:56.931Z,-1.87
2016-02-17T07:25:56.886Z,-1.9
2016-02-17T07:26:56.967Z,-1.92
2016-02-17T07:27:56.814Z,-1.9
2016-02-17T07:28:56.785Z,-1.9
2016-02-17T07:29:56.756Z,-1.92
2016-02-17T07:30:56.728Z,-1.9
2016-02-17T07:31:56.683Z,-1.9
2016-02-17T07:32:56.656Z,-1.9
2016-02-17T07:33:56.752Z,-1.84
2016-02-17T07:34:56.583Z,-1.9
2016-02-17T07:35:56.554Z,-1.9
2016-02-17T07:36:56.525Z,-1.92
2016-02-17T07:37:56.325Z,-1.94
2016-02-17T07:38:56.437Z,-1.84
2016-02-17T07:39:56.408Z,-1.89
2016-02-17T07:40:56.380Z,-1.86
2016-02-17T07:41:56.352Z,-1.9
2016-02-17T07:42:56.307Z,-1.86
2016-02-17T07:43:56.279Z,-1.89
2016-02-17T07:44:56.235Z,-1.89
2016-02-17T07:45:56.206Z,-1.8
2016-02-17T07:46:56.176Z,-1.8
2016-02-17T07:47:56.133Z,-1.77
2016-02-17T07:48:56.089Z,-1.77
2016-02-17T07:49:56.057Z,-1.83
2016-02-17T07:50:56.027Z,-1.77
2016-02-17T07:51:55.951Z,-1.74
2016-02-17T07:52:55.906Z,-1.69
2016-02-17T07:53:55.877Z,-1.68
2016-02-17T07:54:55.803Z,-1.59
2016-02-17T07:55:55.768Z,-1.51
2016-02-17T07:56:55.719Z,-1.61
2016-02-17T07:57:55.684Z,-1.59
2016-02-17T07:58:55.649Z,-1.56
2016-02-17T07:59:55.616Z,-1.56
2016-02-17T08:00:55.569Z,-1.64
2016-02-17T08:01:55.539Z,-1.51
2016-02-17T08:02:55.510Z,-1.44
2016-02-17T08:03:55.556Z,-1.48
2016-02-17T08:04:55.637Z,-1.44
2016-02-17T08:05:55.403Z,-1.5
2016-02-17T08:06:55.358Z,-1.5
2016-02-17T08:07:55.329Z,-1.5
2016-02-17T08:08:55.300Z,-1.41
2016-02-17T08:09:55.271Z,-1.4
2016-02-17T08:10:55.226Z,-1.29
2016-02-17T08:11:55.196Z,-1.33
2016-02-17T08:12:55.153Z,-1.29
2016-02-17T08:13:55.123Z,-1.26
2016-02-17T08:14:55.094Z,-1.27
2016-02-17T08:15:55.066Z,-1.23
2016-02-17T08:16:55.021Z,-1.19
2016-02-17T08:17:54.994Z,-1.15
2016-02-17T08:18:54.949Z,-1.12
2016-02-17T08:19:54.905Z,-1.14
2016-02-17T08:20:54.876Z,-1.15
2016-02-17T08:21:54.847Z,-1.17
2016-02-17T08:22:54.804Z,-1.14
2016-02-17T08:23:54.774Z,-1.04
2016-02-17T08:24:54.747Z,-1.15
2016-02-17T08:25:54.718Z,-1.01
2016-02-17T08:26:54.674Z,-1.09
2016-02-17T08:27:54.661Z,-1.01
2016-02-17T08:28:54.617Z,-1.01
2016-02-17T08:29:54.573Z,-0.96
2016-02-17T08:30:54.747Z,-0.99
2016-02-17T08:31:54.516Z,-1.01
2016-02-17T08:32:54.487Z,-1.07
2016-02-17T08:33:54.442Z,-1.02
2016-02-17T08:34:54.415Z,-0.94
2016-02-17T08:35:54.370Z,-0.89
2016-02-17T08:36:54.342Z,-0.94
2016-02-17T08:37:54.312Z,-0.91
2016-02-17T08:38:54.284Z,-0.85
2016-02-17T08:39:54.240Z,-0.85
2016-02-17T08:40:54.212Z,-0.77
2016-02-17T08:41:54.167Z,-0.89
2016-02-17T08:42:54.139Z,-0.8
2016-02-17T08:43:54.111Z,-0.72
2016-02-17T08:44:54.082Z,-0.75
2016-02-17T08:45:54.038Z,-0.75
2016-02-17T08:46:54.009Z,-0.72
2016-02-17T08:47:53.981Z,-0.72
2016-02-17T08:48:53.937Z,-0.74
2016-02-17T08:49:53.908Z,-0.61
2016-02-17T08:50:53.880Z,-0.64
2016-02-17T08:51:53.850Z,-0.61
2016-02-17T08:52:53.806Z,-0.56
2016-02-17T08:53:53.777Z,-0.56
2016-02-17T08:54:53.749Z,-0.53
2016-02-17T08:55:53.705Z,-0.56
2016-02-17T08:56:53.677Z,-0.5
2016-02-17T08:57:53.649Z,-0.54
2016-02-17T08:58:53.479Z,-0.47
2016-02-17T08:59:53.591Z,-0.36
2016-02-17T09:00:53.546Z,-0.36
2016-02-17T09:01:53.518Z,-0.36
2016-02-17T09:02:53.474Z,-0.32
2016-02-17T09:03:53.446Z,-0.28
2016-02-17T09:04:53.449Z,-0.34
2016-02-17T09:05:53.388Z,-0.25
2016-02-17T09:06:53.344Z,-0.31
2016-02-17T09:07:53.315Z,-0.2
2016-02-17T09:08:53.131Z,-0.21
2016-02-17T09:09:53.243Z,-0.18
2016-02-17T09:10:53.214Z,-0.18
2016-02-17T09:11:53.186Z,-0.11
2016-02-17T09:12:53.156Z,-0.08
2016-02-17T09:13:53.129Z,0
2016-02-17T09:14:53.085Z,-0.02
2016-02-17T09:15:53.087Z,0.05
2016-02-17T09:16:53.028Z,0.1
2016-02-17T09:17:52.983Z,0.1
2016-02-17T09:18:53.205Z,0.08
2016-02-17T09:19:52.925Z,0.04
2016-02-17T09:20:52.897Z,0.12
2016-02-17T09:21:52.853Z,0.12
2016-02-17T09:22:52.840Z,0.16
2016-02-17T09:23:52.797Z,0.23
2016-02-17T09:24:52.767Z,0.23
2016-02-17T09:25:52.724Z,0.28
2016-02-17T09:26:52.694Z,0.31
2016-02-17T09:27:52.666Z,0.36
2016-02-17T09:28:52.652Z,0.31
2016-02-17T09:29:52.594Z,0.37
2016-02-17T09:30:52.612Z,0.4
2016-02-17T09:31:52.536Z,0.41
2016-02-17T09:32:52.507Z,0.46
2016-02-17T09:33:52.463Z,0.56
2016-02-17T09:34:52.435Z,0.56
2016-02-17T09:35:52.421Z,0.63
2016-02-17T09:36:52.379Z,0.6
2016-02-17T09:37:52.350Z,0.69
2016-02-17T09:38:52.321Z,0.69
2016-02-17T09:39:52.324Z,0.62
2016-02-17T09:40:52.248Z,0.8
2016-02-17T09:41:52.220Z,0.73
2016-02-17T09:42:52.191Z,0.81
2016-02-17T09:43:52.147Z,0.7
2016-02-17T09:44:52.118Z,0.74
2016-02-17T09:45:52.089Z,0.83
2016-02-17T09:46:52.061Z,0.88
2016-02-17T09:47:52.017Z,0.78
2016-02-17T09:48:51.989Z,0.94
2016-02-17T09:49:51.959Z,0.84
2016-02-17T09:50:51.931Z,0.92
2016-02-17T09:51:51.887Z,0.88
2016-02-17T09:52:51.859Z,0.91
2016-02-17T09:53:51.830Z,1.02
2016-02-17T09:54:51.802Z,0.98
2016-02-17T09:55:51.772Z,0.99
2016-02-17T09:56:52.197Z,1.01
2016-02-17T09:57:51.716Z,1.04
2016-02-17T09:58:51.672Z,1.02
2016-02-17T09:59:51.862Z,0.99
2016-02-17T10:00:51.739Z,1.08
2016-02-17T10:01:51.571Z,1.13
2016-02-17T10:02:51.574Z,1.19
2016-02-17T10:03:51.513Z,1.22
2016-02-17T10:04:51.499Z,1.19
2016-02-17T10:05:51.456Z,1.22
2016-02-17T10:06:51.443Z,1.26
2016-02-17T10:07:51.399Z,1.32
2016-02-17T10:08:51.354Z,1.3
2016-02-17T10:09:51.326Z,1.42
2016-02-17T10:10:51.470Z,1.42
2016-02-17T10:11:51.300Z,1.37
2016-02-17T10:12:51.225Z,1.41
2016-02-17T10:13:51.196Z,1.35
2016-02-17T10:14:51.198Z,1.37
2016-02-17T10:15:51.140Z,1.38
2016-02-17T10:16:51.111Z,1.42
2016-02-17T10:17:51.145Z,1.44
2016-02-17T10:18:51.053Z,1.45
2016-02-17T10:19:51.056Z,1.49
2016-02-17T10:20:50.997Z,1.56
2016-02-17T10:21:50.952Z,1.52
2016-02-17T10:22:50.923Z,1.55
2016-02-17T10:23:50.880Z,1.6
2016-02-17T10:24:50.850Z,1.6
2016-02-17T10:25:50.822Z,1.63
2016-02-17T10:26:50.809Z,1.62
2016-02-17T10:27:50.766Z,1.71
2016-02-17T10:28:50.736Z,1.7
2016-02-17T10:29:50.708Z,1.77
2016-02-17T10:30:50.680Z,1.8
2016-02-17T10:31:50.636Z,1.73
2016-02-17T10:32:50.607Z,1.77
2016-02-17T10:33:50.594Z,1.74
2016-02-17T10:34:50.550Z,1.8
2016-02-17T10:35:50.521Z,1.88
2016-02-17T10:36:50.477Z,1.87
2016-02-17T10:37:50.464Z,1.91
2016-02-17T10:38:50.452Z,1.97
2016-02-17T10:39:50.392Z,1.97
2016-02-17T10:40:50.379Z,1.99
2016-02-17T10:41:50.335Z,2.04
2016-02-17T10:42:50.307Z,2.1
2016-02-17T10:43:50.141Z,2.14
2016-02-17T10:44:50.350Z,2.11
2016-02-17T10:45:50.056Z,2.1
2016-02-17T10:46:50.300Z,2.24
2016-02-17T10:47:50.816Z,2.32
2016-02-17T10:48:50.116Z,2.28
2016-02-17T10:49:50.086Z,2.31
2016-02-17T10:50:50.059Z,2.31
2016-02-17T10:51:50.030Z,2.24
2016-02-17T10:52:50.002Z,2.28
2016-02-17T10:53:49.973Z,2.24
2016-02-17T10:54:49.929Z,2.38
2016-02-17T10:55:49.900Z,2.35
2016-02-17T10:56:49.882Z,2.35
2016-02-17T10:57:50.025Z,2.43
2016-02-17T10:58:49.809Z,2.46
2016-02-17T10:59:49.796Z,2.49
2016-02-17T11:00:49.752Z,2.46
2016-02-17T11:01:49.723Z,2.53
2016-02-17T11:02:49.695Z,2.53
2016-02-17T11:03:49.682Z,2.51
2016-02-17T11:04:49.685Z,2.6
2016-02-17T11:05:49.593Z,2.54
2016-02-17T11:06:49.565Z,2.68
2016-02-17T11:07:49.552Z,2.68
2016-02-17T11:08:49.507Z,2.64
2016-02-17T11:09:49.480Z,2.71
2016-02-17T11:10:49.451Z,2.75
2016-02-17T11:11:49.423Z,2.77
2016-02-17T11:12:49.393Z,2.83
2016-02-17T11:13:49.350Z,2.86
2016-02-17T11:14:49.337Z,2.87
2016-02-17T11:15:49.371Z,2.92
2016-02-17T11:16:49.280Z,2.9
2016-02-17T11:17:49.298Z,2.93
2016-02-17T11:18:49.223Z,3.01
2016-02-17T11:19:49.178Z,3.08
2016-02-17T11:20:49.150Z,3.13
2016-02-17T11:21:49.122Z,3.08
2016-02-17T11:22:49.093Z,3.11
2016-02-17T11:23:49.064Z,3.18
2016-02-17T11:24:49.036Z,3.08
2016-02-17T11:25:49.008Z,3.14
2016-02-17T11:26:48.963Z,3.21
2016-02-17T11:27:49.309Z,3.22
2016-02-17T11:28:48.906Z,3.21
2016-02-17T11:29:48.878Z,3.25
2016-02-17T11:30:48.849Z,3.26
2016-02-17T11:31:48.820Z,3.32
2016-02-17T11:32:48.792Z,3.28
2016-02-17T11:33:48.764Z,3.25
2016-02-17T11:34:48.750Z,3.34
2016-02-17T11:35:48.706Z,3.34
2016-02-17T11:36:48.677Z,3.42
2016-02-17T11:37:48.665Z,3.44
2016-02-17T11:38:48.618Z,3.55
2016-02-17T11:39:48.588Z,3.5
2016-02-17T11:40:48.560Z,3.47
2016-02-17T11:41:48.516Z,3.58
2016-02-17T11:42:48.504Z,3.59
2016-02-17T11:43:48.475Z,3.66
2016-02-17T11:44:48.446Z,3.63
2016-02-17T11:45:48.418Z,3.73
2016-02-17T11:46:48.390Z,3.76
2016-02-17T11:47:48.361Z,3.76
2016-02-17T11:48:48.318Z,3.74
2016-02-17T11:49:48.288Z,3.81
2016-02-17T11:50:48.290Z,3.87
2016-02-17T11:51:48.247Z,3.76
2016-02-17T11:52:48.203Z,3.91
2016-02-17T11:53:48.174Z,3.92
2016-02-17T11:54:48.146Z,3.86
2016-02-17T11:55:48.117Z,3.87
2016-02-17T11:56:48.089Z,4.01
2016-02-17T11:57:48.060Z,4.05
2016-02-17T11:58:48.031Z,4.04
2016-02-17T11:59:48.019Z,4.05
2016-02-17T12:00:47.975Z,4.06
2016-02-17T12:01:47.945Z,4.05
2016-02-17T12:02:47.934Z,4.12
2016-02-17T12:03:47.889Z,4.1
2016-02-17T12:04:47.704Z,4.1
2016-02-17T12:05:47.868Z,4.06
2016-02-17T12:06:47.808Z,4.2
2016-02-17T12:07:47.779Z,4.19
2016-02-17T12:08:47.750Z,4.22
2016-02-17T12:09:47.738Z,4.17
2016-02-17T12:10:47.694Z,4.12
2016-02-17T12:11:47.680Z,4.17
2016-02-17T12:12:47.636Z,4.02
2016-02-17T12:13:47.608Z,4.06
2016-02-17T12:14:47.580Z,4.05
2016-02-17T12:15:47.551Z,4.17
2016-02-17T12:16:47.522Z,4.17
2016-02-17T12:17:47.493Z,4.2
2016-02-17T12:18:47.466Z,4.26
2016-02-17T12:19:47.437Z,4.24
2016-02-17T12:20:47.407Z,4.31
2016-02-17T12:21:47.380Z,4.28
2016-02-17T12:22:47.351Z,4.35
2016-02-17T12:23:47.307Z,4.34
2016-02-17T12:24:47.278Z,4.35
2016-02-17T12:25:47.265Z,4.31
2016-02-17T12:26:47.237Z,4.3
2016-02-17T12:27:47.209Z,4.28
2016-02-17T12:28:47.179Z,4.3
2016-02-17T12:29:47.150Z,4.31
2016-02-17T12:30:47.107Z,4.31
2016-02-17T12:31:47.094Z,4.3
2016-02-17T12:32:47.065Z,4.26
2016-02-17T12:33:47.037Z,4.3
2016-02-17T12:34:47.008Z,4.32
2016-02-17T12:35:46.980Z,4.23
2016-02-17T12:36:46.967Z,4.38
2016-02-17T12:37:46.922Z,4.35
2016-02-17T12:38:46.894Z,4.35
2016-02-17T12:39:46.866Z,4.4
2016-02-17T12:40:46.837Z,4.48
2016-02-17T12:41:46.808Z,4.41
2016-02-17T12:42:46.780Z,4.52
2016-02-17T12:43:46.752Z,4.56
2016-02-17T12:44:46.722Z,4.62
2016-02-17T12:45:46.694Z,4.53
2016-02-17T12:46:46.666Z,4.6
2016-02-17T12:47:46.637Z,4.67
2016-02-17T12:48:46.624Z,4.63
2016-02-17T12:49:46.596Z,4.78
2016-02-17T12:50:46.551Z,4.82
2016-02-17T12:51:46.523Z,4.77
2016-02-17T12:52:46.494Z,4.84
2016-02-17T12:53:46.465Z,4.86
2016-02-17T12:54:46.453Z,4.89
2016-02-17T12:55:46.424Z,4.89
2016-02-17T12:56:46.379Z,4.86
2016-02-17T12:57:46.351Z,4.9
2016-02-17T12:58:46.339Z,4.82
2016-02-17T12:59:46.294Z,4.86
2016-02-17T13:00:46.266Z,4.86
2016-02-17T13:01:46.253Z,4.86
2016-02-17T13:02:46.208Z,4.86